createdAt,value
2019-04-11T00:02:22.654Z,102284.52
2019-04-11T00:04:52.515Z,102285.43
2019-04-11T00:07:21.113Z,102283.92
2019-04-11T00:09:49.665Z,102281.88
2019-04-11T00:12:18.708Z,102283.18
2019-04-11T00:14:48.384Z,102280.88
2019-04-11T00:17:18.051Z,102280.13
2019-04-11T00:19:47.496Z,102282.97
2019-04-11T00:22:17.298Z,102281.55
2019-04-11T00:24:47.131Z,102286.17
2019-04-11T00:27:17.008Z,102283.34
2019-04-11T00:29:46.886Z,102281.44
2019-04-11T00:32:15.664Z,102288.99
2019-04-11T00:34:44.887Z,102284.89
2019-04-11T00:37:13.716Z,102286.06
2019-04-11T00:39:42.251Z,102287.73
2019-04-11T00:42:10.846Z,102290.16
2019-04-11T00:44:39.403Z,102294.86
2019-04-11T00:47:08.923Z,102291.19
2019-04-11T00:49:38.561Z,102289.38
2019-04-11T00:52:08.475Z,102296.05
2019-04-11T00:54:37.215Z,102302.44
2019-04-11T00:57:06.564Z,102301.41
2019-04-11T00:59:35.250Z,102300.39
2019-04-11T01:02:05.089Z,102301.17
2019-04-11T01:04:34.871Z,102301.53
2019-04-11T01:07:04.691Z,102300.64
2019-04-11T01:09:33.286Z,102295.05
2019-04-11T01:12:02.610Z,102299.91
2019-04-11T01:14:32.029Z,102303.98
2019-04-11T01:17:01.098Z,102305.38
2019-04-11T01:19:30.967Z,102309.84
2019-04-11T01:21:59.634Z,102307.19
2019-04-11T01:24:28.251Z,102306.03
2019-04-11T01:26:57.356Z,102303.23
2019-04-11T01:29:27.221Z,102304.77
2019-04-11T01:31:58.111Z,102312.31
2019-04-11T01:34:26.766Z,102304.91
2019-04-11T01:36:55.527Z,102309.38
2019-04-11T01:39:43.299Z,102311.68
2019-04-11T01:42:13.159Z,102313.56
2019-04-11T01:44:42.940Z,102314.09
2019-04-11T01:47:13.354Z,102317.14
2019-04-11T01:49:41.910Z,102316.02
2019-04-11T01:52:10.458Z,102323.77
2019-04-11T01:54:39.598Z,102324.41
2019-04-11T01:57:08.271Z,102323.41
2019-04-11T01:59:37.531Z,102324.02
2019-04-11T02:02:23.664Z,102329.89
2019-04-11T02:04:56.556Z,102334.85
2019-04-11T02:07:25.165Z,102329.11
2019-04-11T02:09:54.739Z,102334.49
2019-04-11T02:12:23.449Z,102333.33
2019-04-11T02:14:52.218Z,102329.39
2019-04-11T02:17:20.754Z,102332.44
2019-04-11T02:19:50.249Z,102338.66
2019-04-11T02:22:36.839Z,102338.55
2019-04-11T02:25:08.368Z,102337.14
2019-04-11T02:27:38.568Z,102324.14
2019-04-11T02:30:08.816Z,102332.53
2019-04-11T02:32:38.184Z,102342.23
2019-04-11T02:35:08.290Z,102343.75
2019-04-11T02:37:37.942Z,102348.34
2019-04-11T02:40:07.593Z,102354.46
2019-04-11T02:42:36.691Z,102354.31
2019-04-11T02:45:22.537Z,102354.80
2019-04-11T02:47:39.578Z,102353.66
2019-04-11T02:50:08.175Z,102354.30
2019-04-11T02:52:39.953Z,102350.72
2019-04-11T02:55:10.717Z,102347.52
2019-04-11T02:57:40.741Z,102353.89
2019-04-11T03:00:11.079Z,102349.92
2019-04-11T03:02:42.399Z,102351.97
2019-04-11T03:05:12.047Z,102354.02
2019-04-11T03:07:42.300Z,102357.84
2019-04-11T03:10:13.788Z,102355.92
2019-04-11T03:12:43.540Z,102354.50
2019-04-11T03:15:27.485Z,102357.19
2019-04-11T03:17:44.626Z,102363.65
2019-04-11T03:20:23.089Z,102357.02
2019-04-11T03:22:45.370Z,102356.13
2019-04-11T03:25:15.665Z,102360.45
2019-04-11T03:27:45.273Z,102353.70
2019-04-11T03:30:21.014Z,102356.78
2019-04-11T03:33:47.096Z,102351.54
2019-04-11T03:36:01.235Z,102354.33
2019-04-11T03:38:04.185Z,102360.20
2019-04-11T03:40:36.873Z,102360.05
2019-04-11T03:43:04.131Z,102365.77
2019-04-11T03:45:41.656Z,102366.01
2019-04-11T03:48:06.134Z,102364.86
2019-04-11T03:50:23.357Z,102366.61
2019-04-11T03:52:51.590Z,102370.17
2019-04-11T03:55:21.469Z,102375.00
2019-04-11T03:57:51.822Z,102365.68
2019-04-11T04:00:21.632Z,102371.78
2019-04-11T04:02:52.455Z,102375.19
2019-04-11T04:05:21.671Z,102374.04
2019-04-11T04:07:50.494Z,102378.48
2019-04-11T04:10:21.181Z,102382.00
2019-04-11T04:12:51.455Z,102379.58
2019-04-11T04:15:48.883Z,102380.20
2019-04-11T04:17:57.357Z,102388.21
2019-04-11T04:20:28.962Z,102391.14
2019-04-11T04:23:00.726Z,102387.56
2019-04-11T04:25:32.480Z,102385.41
2019-04-11T04:28:02.892Z,102393.16
2019-04-11T04:30:31.557Z,102393.69
2019-04-11T04:33:00.633Z,102397.23
2019-04-11T04:35:31.525Z,102405.29
2019-04-11T04:38:00.069Z,102403.66
2019-04-11T04:40:44.777Z,102405.89
2019-04-11T04:43:02.852Z,102412.16
2019-04-11T04:45:49.594Z,102407.36
2019-04-11T04:48:05.575Z,102410.96
2019-04-11T04:50:31.429Z,102421.09
2019-04-11T04:53:01.058Z,102418.97
2019-04-11T04:55:30.512Z,102414.39
2019-04-11T04:57:59.737Z,102420.05
2019-04-11T05:00:30.282Z,102411.64
2019-04-11T05:03:01.942Z,102411.42
2019-04-11T05:05:31.017Z,102412.47
2019-04-11T05:08:00.672Z,102420.37
2019-04-11T05:10:30.685Z,102424.09
2019-04-11T05:12:59.756Z,102426.94
2019-04-11T05:15:28.388Z,102432.44
2019-04-11T05:17:57.678Z,102439.71
2019-04-11T05:20:26.365Z,102439.83
2019-04-11T05:22:55.888Z,102438.20
2019-04-11T05:25:24.570Z,102436.30
2019-04-11T05:27:54.005Z,102434.14
2019-04-11T05:30:23.103Z,102435.03
2019-04-11T05:32:51.903Z,102439.24
2019-04-11T05:35:20.723Z,102442.19
2019-04-11T05:37:49.480Z,102436.69
2019-04-11T05:40:17.948Z,102442.82
2019-04-11T05:42:50.978Z,102441.64
2019-04-11T05:45:21.000Z,102437.95
2019-04-11T05:47:50.899Z,102436.91
2019-04-11T05:50:26.385Z,102441.89
2019-04-11T05:52:54.965Z,102441.99
2019-04-11T05:55:23.875Z,102439.05
2019-04-11T05:57:52.472Z,102432.89
2019-04-11T06:00:28.489Z,102433.11
2019-04-11T06:02:59.696Z,102433.08
2019-04-11T06:05:33.817Z,102419.38
2019-04-11T06:08:05.577Z,102428.67
2019-04-11T06:10:37.065Z,102446.13
2019-04-11T06:13:13.755Z,102458.13
2019-04-11T06:15:53.544Z,102451.72
2019-04-11T06:18:30.539Z,102454.11
2019-04-11T06:20:55.699Z,102455.27
2019-04-11T06:23:35.126Z,102453.45
2019-04-11T06:26:09.209Z,102460.64
2019-04-11T06:28:39.301Z,102457.72
2019-04-11T06:31:18.661Z,102467.16
2019-04-11T06:33:49.098Z,102468.70
2019-04-11T06:36:35.405Z,102472.88
2019-04-11T06:39:19.088Z,102475.94
2019-04-11T06:41:49.239Z,102476.80
2019-04-11T06:44:21.806Z,102476.63
2019-04-11T06:47:08.223Z,102482.21
2019-04-11T06:49:47.100Z,102485.27
2019-04-11T06:52:16.836Z,102492.91
2019-04-11T06:55:05.127Z,102500.82
2019-04-11T06:57:34.599Z,102495.44
2019-04-11T07:00:05.145Z,102498.84
2019-04-11T07:02:35.393Z,102503.05
2019-04-11T07:05:09.094Z,102499.13
2019-04-11T07:07:39.299Z,102495.70
2019-04-11T07:10:08.030Z,102497.16
2019-04-11T07:12:41.011Z,102494.95
2019-04-11T07:15:18.850Z,102489.69
2019-04-11T07:18:07.505Z,102494.91
2019-04-11T07:20:52.338Z,102503.93
2019-04-11T07:23:38.820Z,102500.24
2019-04-11T07:26:14.818Z,102495.78
2019-04-11T07:28:44.968Z,102498.82
2019-04-11T07:31:33.905Z,102492.97
2019-04-11T07:34:19.475Z,102507.70
2019-04-11T07:36:53.500Z,102507.70
2019-04-11T07:39:26.792Z,102498.53
2019-04-11T07:42:00.326Z,102498.53
2019-04-11T07:44:34.107Z,102501.89
2019-04-11T07:47:13.698Z,102498.26
2019-04-11T07:49:42.879Z,102496.67
2019-04-11T07:52:20.259Z,102503.01
2019-04-11T07:54:49.050Z,102508.82
2019-04-11T07:57:19.365Z,102511.70
2019-04-11T07:59:49.536Z,102512.47
2019-04-11T08:02:24.393Z,102522.48
2019-04-11T08:05:04.931Z,102521.89
2019-04-11T08:07:44.810Z,102526.93
2019-04-11T08:10:23.734Z,102534.66
2019-04-11T08:12:54.082Z,102527.41
2019-04-11T08:15:39.897Z,102528.51
2019-04-11T08:18:10.454Z,102530.05
2019-04-11T08:20:57.432Z,102529.81
2019-04-11T08:23:26.408Z,102528.88
2019-04-11T08:26:11.675Z,102528.43
2019-04-11T08:28:40.799Z,102523.61
2019-04-11T08:31:23.059Z,102521.86
2019-04-11T08:33:55.101Z,102522.08
2019-04-11T08:36:42.079Z,102525.48
2019-04-11T08:39:13.003Z,102523.50
2019-04-11T08:41:50.205Z,102522.52
2019-04-11T08:44:19.492Z,102525.13
2019-04-11T08:46:49.616Z,102530.65
2019-04-11T08:49:19.742Z,102528.40
2019-04-11T08:51:48.236Z,102528.25
2019-04-11T08:54:21.600Z,102515.30
2019-04-11T08:56:50.079Z,102518.87
2019-04-11T08:59:37.770Z,102517.44
2019-04-11T09:02:06.833Z,102516.25
2019-04-11T09:05:03.117Z,102520.63
2019-04-11T09:07:31.792Z,102517.64
2019-04-11T09:10:18.162Z,102520.54
2019-04-11T09:12:48.932Z,102519.24
2019-04-11T09:15:24.933Z,102511.02
2019-04-11T09:18:03.472Z,102514.39
2019-04-11T09:20:33.836Z,102513.26
2019-04-11T09:23:03.501Z,102516.34
2019-04-11T09:25:52.211Z,102512.47
2019-04-11T09:28:21.776Z,102515.78
2019-04-11T09:31:08.925Z,102509.06
2019-04-11T09:33:55.490Z,102507.05
2019-04-11T09:36:36.789Z,102506.79
2019-04-11T09:39:15.164Z,102511.95
2019-04-11T09:41:48.912Z,102506.48
2019-04-11T09:44:20.306Z,102516.88
2019-04-11T09:47:07.554Z,102516.72
2019-04-11T09:49:37.726Z,102503.58
2019-04-11T09:52:08.834Z,102510.11
2019-04-11T09:54:42.031Z,102512.38
2019-04-11T09:57:18.532Z,102507.36
2019-04-11T09:59:49.732Z,102515.31
2019-04-11T10:02:25.632Z,102535.11
2019-04-11T10:04:56.859Z,102531.71
2019-04-11T10:07:28.145Z,102534.27
2019-04-11T10:10:04.796Z,102551.29
2019-04-11T10:12:42.426Z,102546.58
2019-04-11T10:15:13.436Z,102554.30
2019-04-11T10:17:43.764Z,102539.40
2019-04-11T10:20:16.560Z,102526.20
2019-04-11T10:22:49.481Z,102535.65
2019-04-11T10:25:21.127Z,102536.13
2019-04-11T10:27:57.272Z,102532.31
2019-04-11T10:30:44.149Z,102524.41
2019-04-11T10:33:15.010Z,102526.08
2019-04-11T10:35:57.125Z,102515.52
2019-04-11T10:38:26.604Z,102519.47
2019-04-11T10:41:00.760Z,102518.67
2019-04-11T10:43:32.101Z,102521.89
2019-04-11T10:46:02.838Z,102521.52
2019-04-11T10:48:39.291Z,102520.91
2019-04-11T10:51:11.057Z,102517.13
2019-04-11T10:53:41.501Z,102519.34
2019-04-11T10:56:20.279Z,102518.77
2019-04-11T10:58:51.258Z,102516.75
2019-04-11T11:01:37.963Z,102511.17
2019-04-11T11:04:17.885Z,102513.29
2019-04-11T11:06:48.398Z,102514.58
2019-04-11T11:09:37.228Z,102512.47
2019-04-11T11:12:14.056Z,102507.30
2019-04-11T11:14:59.485Z,102509.09
2019-04-11T11:18:12.653Z,102504.55
2019-04-11T11:20:27.084Z,102505.63
2019-04-11T11:22:52.362Z,102506.35
2019-04-11T11:25:39.361Z,102508.18
2019-04-11T11:28:08.033Z,102510.14
2019-04-11T11:30:38.196Z,102503.99
2019-04-11T11:33:08.303Z,102515.72
2019-04-11T11:35:50.179Z,102504.66
2019-04-11T11:38:24.109Z,102506.16
2019-04-11T11:41:10.583Z,102513.95
2019-04-11T11:43:39.162Z,102516.84
2019-04-11T11:46:12.239Z,102514.97
2019-04-11T11:48:46.276Z,102518.47
2019-04-11T11:51:31.148Z,102514.97
2019-04-11T11:54:05.169Z,102524.19
2019-04-11T11:56:35.334Z,102521.29
2019-04-11T11:59:09.115Z,102510.95
2019-04-11T12:01:45.164Z,102514.01
2019-04-11T12:04:16.964Z,102519.11
2019-04-11T12:06:48.145Z,102522.48
2019-04-11T12:09:34.211Z,102519.84
2019-04-11T12:12:11.413Z,102521.92
2019-04-11T12:14:59.283Z,102519.50
2019-04-11T12:17:34.785Z,102517.07
2019-04-11T12:20:09.746Z,102526.27
2019-04-11T12:22:36.781Z,102525.55
2019-04-11T12:25:09.826Z,102520.44
2019-04-11T12:27:43.624Z,102521.47
2019-04-11T12:30:21.634Z,102523.58
2019-04-11T12:32:51.310Z,102526.79
2019-04-11T12:35:38.032Z,102526.88
2019-04-11T12:38:11.685Z,102524.75
2019-04-11T12:40:54.150Z,102523.67
2019-04-11T12:43:24.630Z,102528.47
2019-04-11T12:46:10.944Z,102523.61
2019-04-11T12:48:40.697Z,102528.20
2019-04-11T12:51:27.549Z,102529.70
2019-04-11T12:53:57.681Z,102534.61
2019-04-11T12:56:27.789Z,102534.28
2019-04-11T12:58:56.759Z,102534.25
2019-04-11T13:01:26.858Z,102528.66
2019-04-11T13:04:05.919Z,102507.59
2019-04-11T13:06:36.050Z,102533.38
2019-04-11T13:09:11.477Z,102533.76
2019-04-11T13:11:41.584Z,102530.30
2019-04-11T13:14:14.364Z,102523.53
2019-04-11T13:16:44.516Z,102528.86
2019-04-11T13:19:17.048Z,102524.38
2019-04-11T13:21:49.892Z,102525.42
2019-04-11T13:24:28.477Z,102526.81
2019-04-11T13:27:14.002Z,102527.23
2019-04-11T13:29:44.115Z,102525.94
2019-04-11T13:32:30.621Z,102530.28
2019-04-11T13:35:12.664Z,102529.23
2019-04-11T13:38:00.999Z,102534.53
2019-04-11T13:40:36.891Z,102532.67
2019-04-11T13:43:23.137Z,102544.02
2019-04-11T13:46:10.101Z,102545.03
2019-04-11T13:48:56.441Z,102532.67
2019-04-11T13:51:29.479Z,102548.87
2019-04-11T13:54:15.892Z,102537.45
2019-04-11T13:57:02.726Z,102545.50
2019-04-11T13:59:35.326Z,102536.30
2019-04-11T14:02:17.965Z,102547.61
2019-04-11T14:04:48.109Z,102536.41
2019-04-11T14:07:18.443Z,102531.72
2019-04-11T14:09:51.438Z,102538.87
2019-04-11T14:12:20.038Z,102531.37
2019-04-11T14:14:51.949Z,102534.27
2019-04-11T14:17:22.240Z,102536.97
2019-04-11T14:20:11.579Z,102542.36
2019-04-11T14:22:47.947Z,102541.38
2019-04-11T14:25:23.706Z,102541.98
2019-04-11T14:27:56.761Z,102539.23
2019-04-11T14:30:32.437Z,102541.13
2019-04-11T14:33:01.085Z,102547.39
2019-04-11T14:35:47.071Z,102550.98
2019-04-11T14:38:23.176Z,102555.37
2019-04-11T14:41:01.626Z,102557.90
2019-04-11T14:43:28.088Z,102560.02
2019-04-11T14:46:04.626Z,102551.89
2019-04-11T14:48:42.966Z,102558.55
2019-04-11T14:51:15.847Z,102554.00
2019-04-11T14:53:51.562Z,102553.89
2019-04-11T14:56:22.190Z,102550.55
2019-04-11T14:59:09.299Z,102556.80
2019-04-11T15:01:37.793Z,102553.16
2019-04-11T15:04:16.789Z,102547.42
2019-04-11T15:06:49.387Z,102551.17
2019-04-11T15:09:35.768Z,102549.08
2019-04-11T15:12:08.366Z,102553.94
2019-04-11T15:14:49.511Z,102545.33
2019-04-11T15:17:19.090Z,102550.88
2019-04-11T15:20:07.083Z,102546.91
2019-04-11T15:22:42.983Z,102549.59
2019-04-11T15:25:13.158Z,102552.64
2019-04-11T15:27:55.254Z,102548.30
2019-04-11T15:30:43.422Z,102553.75
2019-04-11T15:33:16.253Z,102546.32
2019-04-11T15:35:46.367Z,102548.81
2019-04-11T15:38:31.754Z,102550.80
2019-04-11T15:41:01.887Z,102549.81
2019-04-11T15:43:50.357Z,102550.52
2019-04-11T15:46:20.463Z,102550.52
2019-04-11T15:49:07.068Z,102547.94
2019-04-11T15:51:36.600Z,102550.52
2019-04-11T15:54:16.341Z,102554.56
2019-04-11T15:56:58.869Z,102570.42
2019-04-11T15:59:37.880Z,102548.31
2019-04-11T16:02:24.259Z,102554.05
2019-04-11T16:05:02.047Z,102555.34
2019-04-11T16:07:32.130Z,102563.47
2019-04-11T16:10:02.167Z,102560.67
2019-04-11T16:12:32.326Z,102558.91
2019-04-11T16:15:18.611Z,102558.42
2019-04-11T16:17:54.741Z,102554.45
2019-04-11T16:20:24.072Z,102560.59
2019-04-11T16:22:55.313Z,102554.66
2019-04-11T16:25:28.734Z,102557.12
2019-04-11T16:28:11.666Z,102559.22
2019-04-11T16:30:43.062Z,102565.26
2019-04-11T16:33:13.182Z,102563.16
2019-04-11T16:35:52.088Z,102568.02
2019-04-11T16:38:27.873Z,102563.78
2019-04-11T16:41:14.578Z,102557.83
2019-04-11T16:43:44.696Z,102553.38
2019-04-11T16:46:24.628Z,102561.87
2019-04-11T16:48:51.040Z,102558.63
2019-04-11T16:51:30.348Z,102552.70
2019-04-11T16:53:49.972Z,102565.47
2019-04-11T16:56:18.418Z,102549.64
2019-04-11T16:58:50.193Z,102549.64
2019-04-11T17:01:17.127Z,102558.73
2019-04-11T17:03:45.590Z,102568.14
2019-04-11T17:06:15.689Z,102563.10
2019-04-11T17:08:45.829Z,102558.73
2019-04-11T17:11:18.632Z,102564.09
2019-04-11T17:13:50.936Z,102564.09
2019-04-11T17:16:19.546Z,102571.41
2019-04-11T17:18:48.016Z,102569.31
2019-04-11T17:21:16.501Z,102569.31
2019-04-11T17:23:47.147Z,102573.09
2019-04-11T17:26:15.142Z,102572.80
2019-04-11T17:28:43.632Z,102565.17
2019-04-11T17:31:12.186Z,102577.16
2019-04-11T17:33:40.641Z,102577.83
2019-04-11T17:36:09.188Z,102580.52
2019-04-11T17:38:37.834Z,102578.92
2019-04-11T17:41:06.306Z,102578.63
2019-04-11T17:43:34.802Z,102578.63
2019-04-11T17:46:03.301Z,102591.78
2019-04-11T17:48:31.761Z,102593.16
2019-04-11T17:51:00.277Z,102589.00
2019-04-11T17:53:28.765Z,102589.00
2019-04-11T17:55:57.680Z,102587.80
2019-04-11T17:58:27.242Z,102608.09
2019-04-11T18:01:05.243Z,102604.69
2019-04-11T18:03:32.886Z,102605.21
2019-04-11T18:06:01.460Z,102601.81
2019-04-11T18:08:29.948Z,102618.73
2019-04-11T18:10:58.475Z,102621.50
2019-04-11T18:13:30.696Z,102622.79
2019-04-11T18:16:00.751Z,102622.79
2019-04-11T18:18:27.363Z,102633.36
2019-04-11T18:20:55.893Z,102631.67
2019-04-11T18:23:24.455Z,102638.98
2019-04-11T18:25:53.030Z,102634.24
2019-04-11T18:28:21.859Z,102645.53
2019-04-11T18:30:54.060Z,102641.95
2019-04-11T18:33:23.026Z,102641.95
2019-04-11T18:35:51.503Z,102642.76
2019-04-11T18:38:19.966Z,102639.67
2019-04-11T18:40:48.502Z,102639.67
2019-04-11T18:43:16.980Z,102647.46
2019-04-11T18:45:45.451Z,102647.46
2019-04-11T18:48:14.003Z,102649.42
2019-04-11T18:50:42.543Z,102649.31
2019-04-11T18:53:11.032Z,102653.84
2019-04-11T18:55:39.544Z,102656.30
2019-04-11T18:58:08.357Z,102649.27
2019-04-11T19:00:38.341Z,102653.92
2019-04-11T19:03:07.998Z,102662.92
2019-04-11T19:05:37.337Z,102662.41
2019-04-11T19:08:05.890Z,102658.86
2019-04-11T19:10:34.477Z,102659.14
2019-04-11T19:13:02.978Z,102655.84
2019-04-11T19:15:31.455Z,102655.84
2019-04-11T19:18:06.152Z,102645.15
2019-04-11T19:20:30.181Z,102641.98
2019-04-11T19:22:58.634Z,102648.61
2019-04-11T19:25:27.159Z,102648.61
2019-04-11T19:27:57.270Z,102653.27
2019-04-11T19:30:26.374Z,102659.69
2019-04-11T19:32:55.504Z,102657.28
2019-04-11T19:35:23.989Z,102660.13
2019-04-11T19:37:52.519Z,102660.47
2019-04-11T19:40:21.033Z,102660.39
2019-04-11T19:42:49.856Z,102657.97
2019-04-11T19:45:19.542Z,102670.81
2019-04-11T19:47:51.520Z,102661.13
2019-04-11T19:50:19.106Z,102665.14
2019-04-11T19:52:47.553Z,102658.69
2019-04-11T19:55:17.815Z,102658.69
2019-04-11T19:57:46.278Z,102669.98
2019-04-11T20:00:15.045Z,102672.82
2019-04-11T20:02:43.584Z,102673.98
2019-04-11T20:05:12.345Z,102675.55
2019-04-11T20:07:41.017Z,102676.12
2019-04-11T20:10:09.528Z,102679.73
2019-04-11T20:12:38.003Z,102678.51
2019-04-11T20:15:08.678Z,102678.30
2019-04-11T20:17:44.398Z,102673.34
2019-04-11T20:20:07.864Z,102670.53
2019-04-11T20:22:39.218Z,102668.54
2019-04-11T20:25:07.259Z,102668.54
2019-04-11T20:27:35.714Z,102673.16
2019-04-11T20:30:05.904Z,102673.16
2019-04-11T20:32:34.405Z,102679.30
2019-04-11T20:35:02.867Z,102671.99
2019-04-11T20:37:39.156Z,102675.05
2019-04-11T20:40:01.530Z,102670.98
2019-04-11T20:42:29.979Z,102674.49
2019-04-11T20:44:59.175Z,102674.06
2019-04-11T20:47:29.567Z,102666.91
2019-04-11T20:49:58.051Z,102675.67
2019-04-11T20:52:26.489Z,102671.69
2019-04-11T20:54:54.991Z,102672.48
2019-04-11T20:57:26.018Z,102674.17
2019-04-11T20:59:53.635Z,102674.05
2019-04-11T21:02:22.423Z,102671.48
2019-04-11T21:04:50.923Z,102670.59
2019-04-11T21:07:19.411Z,102676.73
2019-04-11T21:09:47.903Z,102675.05
2019-04-11T21:12:18.261Z,102668.02
2019-04-11T21:14:46.710Z,102672.09
2019-04-11T21:17:15.212Z,102660.14
2019-04-11T21:19:43.667Z,102669.25
2019-04-11T21:22:12.143Z,102666.02
2019-04-11T21:24:40.629Z,102669.99
2019-04-11T21:27:09.083Z,102667.25
2019-04-11T21:29:37.703Z,102655.69
2019-04-11T21:32:06.213Z,102657.59
2019-04-11T21:34:34.684Z,102656.92
2019-04-11T21:37:03.151Z,102661.30
2019-04-11T21:39:31.677Z,102669.09
2019-04-11T21:42:00.107Z,102679.75
2019-04-11T21:44:28.557Z,102671.56
2019-04-11T21:46:57.038Z,102677.37
2019-04-11T21:49:25.495Z,102673.17
2019-04-11T21:51:53.967Z,102683.59
2019-04-11T21:54:22.453Z,102688.23
2019-04-11T21:56:50.919Z,102679.12
2019-04-11T21:59:20.375Z,102682.27
2019-04-11T22:01:53.858Z,102676.39
2019-04-11T22:04:20.876Z,102638.38
2019-04-11T22:06:49.405Z,102676.84
2019-04-11T22:09:17.999Z,102681.35
2019-04-11T22:11:46.452Z,102674.41
2019-04-11T22:14:14.944Z,102681.23
2019-04-11T22:16:45.057Z,102688.92
2019-04-11T22:19:14.284Z,102685.08
2019-04-11T22:21:45.286Z,102687.25
2019-04-11T22:24:13.640Z,102687.25
2019-04-11T22:26:42.131Z,102683.03
2019-04-11T22:29:10.569Z,102675.70
2019-04-11T22:31:39.140Z,102678.66
2019-04-11T22:34:18.193Z,102676.89
2019-04-11T22:36:46.695Z,102678.84
2019-04-11T22:39:15.157Z,102678.36
2019-04-11T22:41:43.613Z,102679.82
2019-04-11T22:44:12.108Z,102684.20
2019-04-11T22:46:40.586Z,102689.60
2019-04-11T22:49:09.504Z,102689.51
2019-04-11T22:51:42.686Z,102687.70
2019-04-11T22:54:08.200Z,102686.81
2019-04-11T22:56:36.662Z,102682.97
2019-04-11T22:59:05.219Z,102688.63
2019-04-11T23:01:34.160Z,102690.39
2019-04-11T23:04:02.691Z,102697.82
2019-04-11T23:06:32.117Z,102703.71
2019-04-11T23:09:00.579Z,102701.45
2019-04-11T23:11:29.029Z,102705.03
2019-04-11T23:13:57.539Z,102703.04
2019-04-11T23:16:25.990Z,102697.28
2019-04-11T23:18:54.461Z,102694.20
2019-04-11T23:21:22.979Z,102697.16
2019-04-11T23:23:51.440Z,102688.05
2019-04-11T23:26:19.902Z,102692.30
2019-04-11T23:28:48.386Z,102684.60
2019-04-11T23:31:19.756Z,102686.41
2019-04-11T23:33:51.792Z,102692.42
2019-04-11T23:36:18.777Z,102689.73
2019-04-11T23:38:48.102Z,102688.35
2019-04-11T23:41:19.594Z,102694.23
2019-04-11T23:43:49.741Z,102688.62
2019-04-11T23:46:19.011Z,102691.58
2019-04-11T23:48:47.138Z,102688.48
2019-04-11T23:51:15.634Z,102691.05
2019-04-11T23:53:44.110Z,102689.28
2019-04-11T23:56:12.563Z,102689.15
2019-04-11T23:58:41.069Z,102686.98
